Leesburg International Airport Leesburg US
ICAO: KLEE
IATA: LEE
Category: Medium
Scheduled Services: No

Elevation: 76 ft
TransAlt. 18000 ft.

Airport Communications:
ORLANDO APP/DEP:121.1
ASOS:134.325
CTAF/UNICOM:122.725

KLEE Zoom In..

If you have problems with the map follow the link
https://www.worldairports.se/pages/airport.php?
ICAO=KLEE

Runways:

(A) RW 03 length 4957 ft width 100 ft
---- / hdg 40

(B) RW 13 length 6300 ft width 100 ft
---- / hdg 135

(C) RW 21 length 4957 ft width 100 ft
---- / hdg 220

(D) RW 31 length 6300 ft width 100 ft
---- / hdg 315

Location; KLEE
Day. 16 / Time. 11.01 Zulu
* Altimeter: 30.13
* Temperature: 07° c. 44.6°f.
* Wind from: 330° Speed 12 kn.
Dewpoint: 05° c.
Visibility: 10 Statute Miles.
Clouds: Broken 900 ft.

KLEE 161101Z AUTO 33012KT 10SM BKN009 07/05 A3013 RMK AO2 T00670050


Wind From 330°
Speed 12 kn.

 
 
jpsmedia.com for Web Design worldairports.se 2018   terms of use